Time;durP1;ratioP1;P1;durP2;ratioP2;P2;SDS_P1;SDS_P2;PMS_P1;PMS_P2;Temp;Humidity;BMP_temperature;BMP_pressure;BME280_temperature;BME280_humidity;BME280_pressure;Samples;Min_cycle;Max_cycle;Signal;HPM_P1;HPM_P2
2024/04/17 00:02:19;;;;;;;7.40;3.60;;;;;;;13.54;100.00;97948.61;105242;1254;74481;-56
2024/04/17 00:04:46;;;;;;;3.70;3.30;;;;;;;13.79;100.00;97936.73;104737;1269;69141;-56
2024/04/17 00:07:14;;;;;;;6.20;3.30;;;;;;;13.40;100.00;97918.27;105174;1254;72496;-56
2024/04/17 00:09:41;;;;;;;5.50;3.00;;;;;;;13.30;100.00;97899.59;104407;1257;61387;-56
2024/04/17 00:12:08;;;;;;;6.00;2.90;;;;;;;13.65;100.00;97895.30;104859;1257;61295;-56
2024/04/17 00:14:36;;;;;;;4.40;3.20;;;;;;;13.52;100.00;97889.64;105118;1254;75300;-56
2024/04/17 00:17:03;;;;;;;4.70;3.20;;;;;;;13.17;100.00;97886.02;104984;1253;68282;-60
2024/04/17 00:19:31;;;;;;;3.20;2.80;;;;;;;13.46;100.00;97910.27;104479;1254;73181;-56
2024/04/17 00:21:59;;;;;;;3.30;3.00;;;;;;;13.48;100.00;97905.67;104905;1253;61365;-56
2024/04/17 00:24:26;;;;;;;3.40;3.00;;;;;;;13.47;100.00;97904.55;105350;1253;61298;-58
2024/04/17 00:26:53;;;;;;;4.00;3.00;;;;;;;13.42;100.00;97914.05;104936;1257;74741;-56
2024/04/17 00:29:21;;;;;;;2.70;2.30;;;;;;;13.32;100.00;97914.87;105153;1265;69065;-56
2024/04/17 00:31:48;;;;;;;5.90;2.50;;;;;;;13.34;100.00;97926.38;104465;1254;72612;-56
2024/04/17 00:34:16;;;;;;;;;;;;;;;13.33;100.00;97948.30;104829;1259;62391;-57
2024/04/17 00:36:44;;;;;;;2.90;1.50;;;;;;;13.21;100.00;97973.13;104732;1253;61358;-56
2024/04/17 00:39:12;;;;;;;1.90;1.70;;;;;;;12.92;100.00;97964.66;105086;1254;74311;-56
2024/04/17 00:41:39;;;;;;;3.20;1.50;;;;;;;12.91;100.00;97989.05;105014;1254;69993;-56
2024/04/17 00:44:07;;;;;;;1.50;1.40;;;;;;;12.37;100.00;98019.85;104847;1257;73390;-57
2024/04/17 00:46:37;;;;;;;1.80;1.50;;;;;;;11.96;100.00;98031.95;105334;1254;61800;-56
2024/04/17 00:49:04;;;;;;;2.10;1.40;;;;;;;12.23;100.00;98026.58;104843;1256;61311;-57
2024/04/17 00:51:33;;;;;;;4.70;1.60;;;;;;;11.79;100.00;98016.48;104462;1256;74554;-56
2024/04/17 00:54:00;;;;;;;2.60;1.20;;;;;;;11.97;100.00;98011.33;104671;1255;70050;-56
2024/04/17 00:56:28;;;;;;;3.60;1.60;;;;;;;11.61;100.00;98018.86;104917;1260;72414;-56
2024/04/17 00:58:55;;;;;;;3.00;1.40;;;;;;;11.63;100.00;98008.67;104745;1257;61483;-57
2024/04/17 01:01:23;;;;;;;3.60;1.50;;;;;;;12.05;100.00;97997.02;105024;1253;61276;-56
2024/04/17 06:05:55;;;;;;;2.00;1.20;;;;;;;10.63;100.00;98066.77;101855;1294;614830;-55
2024/04/17 06:08:22;;;;;;;2.20;1.00;;;;;;;10.59;100.00;98072.79;104490;1267;62114;-54
2024/04/17 06:10:49;;;;;;;2.10;1.20;;;;;;;10.59;100.00;98074.92;104499;1267;60344;-55
2024/04/17 06:13:16;;;;;;;1.60;1.10;;;;;;;10.60;100.00;98075.17;104528;1264;73482;-54
2024/04/17 06:15:43;;;;;;;1.30;1.00;;;;;;;10.59;100.00;98080.66;105244;1258;69614;-54
2024/04/17 06:18:10;;;;;;;5.00;1.10;;;;;;;10.59;100.00;98085.80;104412;1256;1047627;-55
2024/04/17 06:20:37;;;;;;;1.20;1.00;;;;;;;10.57;100.00;98092.04;105749;1255;61875;-55
2024/04/17 06:23:04;;;;;;;1.00;1.00;;;;;;;10.57;100.00;98097.98;105770;1255;60135;-56
2024/04/17 06:25:31;;;;;;;2.70;1.10;;;;;;;10.56;100.00;98100.88;105856;1255;72315;-55
2024/04/17 06:27:58;;;;;;;2.50;0.90;;;;;;;10.62;100.00;98108.50;106183;1254;69744;-55
2024/04/17 06:30:25;;;;;;;2.30;1.20;;;;;;;10.61;100.00;98114.74;105916;1255;71517;-55
2024/04/17 06:32:53;;;;;;;;;;;;;;;10.56;100.00;98115.27;105106;1260;62964;-54
2024/04/17 06:35:20;;;;;;;1.20;1.00;;;;;;;10.49;100.00;98116.75;105975;1255;60542;-58
2024/04/17 06:37:47;;;;;;;2.50;1.20;;;;;;;10.44;100.00;98116.36;106042;1256;73910;-57
2024/04/17 06:40:14;;;;;;;2.40;1.40;;;;;;;10.43;100.00;98117.33;104973;1254;70429;-56
2024/04/17 06:42:41;;;;;;;1.60;1.40;;;;;;;10.45;100.00;98120.72;106234;1255;72562;-57
2024/04/17 06:45:08;;;;;;;1.40;1.30;;;;;;;10.39;100.00;98124.05;105640;1255;60834;-57
2024/04/17 06:49:47;;;;;;;3.20;1.40;;;;;;;10.01;100.00;98124.73;102897;1292;601836;-56
2024/04/17 06:52:14;;;;;;;1.40;1.00;;;;;;;10.26;100.00;98125.23;104273;1269;59959;-56
2024/04/17 06:54:42;;;;;;;1.60;1.30;;;;;;;10.28;100.00;98125.29;104579;1267;59875;-55
2024/04/17 06:57:09;;;;;;;1.30;1.20;;;;;;;10.24;100.00;98125.19;104576;1265;72920;-57
2024/04/17 06:59:37;;;;;;;3.50;1.30;;;;;;;10.19;100.00;98132.20;104625;1270;70486;-56
2024/04/17 07:02:05;;;;;;;1.40;1.30;;;;;;;10.21;100.00;98136.27;104750;1267;71680;-56
2024/04/17 07:04:33;;;;;;;1.50;1.20;;;;;;;10.23;100.00;98129.86;104259;1264;1187489;-55
2024/04/17 07:07:01;;;;;;;1.10;1.10;;;;;;;10.21;100.00;98127.14;104764;1264;59538;-57
2024/04/17 07:09:30;;;;;;;1.90;1.00;;;;;;;10.20;100.00;98128.80;104313;1270;71749;-56
2024/04/17 07:11:57;;;;;;;2.40;1.40;;;;;;;10.21;100.00;98121.00;105043;1264;69767;-55
2024/04/17 07:14:25;;;;;;;;;;;;;;;10.25;100.00;98120.05;104592;1264;73169;-56
2024/04/17 07:16:52;;;;;;;2.50;1.30;;;;;;;10.27;100.00;98120.24;104706;1265;60559;-56
2024/04/17 07:19:24;;;;;;;2.70;1.40;;;;;;;10.23;100.00;98109.52;105000;1269;60571;-56
2024/04/17 07:21:53;;;;;;;4.10;1.30;;;;;;;10.22;100.00;98107.30;104033;1265;73920;-56
2024/04/17 07:24:23;;;;;;;5.40;1.50;;;;;;;10.26;100.00;98105.25;104674;1267;68362;-56
2024/04/17 07:26:52;;;;;;;1.70;1.50;;;;;;;10.21;100.00;98104.88;105275;1260;73402;-56
2024/04/17 07:29:20;;;;;;;4.00;1.60;;;;;;;10.17;100.00;98088.19;105065;1270;60819;-57
2024/04/17 07:31:48;;;;;;;1.60;1.50;;;;;;;10.30;100.00;98095.05;105028;1264;60645;-57
2024/04/17 07:34:16;;;;;;;1.80;1.50;;;;;;;10.34;100.00;98096.35;105158;1261;73662;-57
2024/04/17 07:36:45;;;;;;;;;;;;;;;10.31;100.00;98094.83;105083;1259;69366;-56
2024/04/17 07:39:13;;;;;;;1.50;1.40;;;;;;;10.35;100.00;98093.36;104795;1261;72474;-56
2024/04/17 07:41:41;;;;;;;2.40;2.20;;;;;;;10.40;100.00;98090.21;104344;1263;60468;-56
2024/04/17 07:44:09;;;;;;;2.40;2.20;;;;;;;10.45;100.00;98084.58;105519;1261;60523;-56
2024/04/17 07:46:36;;;;;;;2.70;2.50;;;;;;;10.52;100.00;98080.98;105919;1258;73967;-56
2024/04/17 07:49:04;;;;;;;2.50;2.30;;;;;;;10.58;100.00;98078.16;105263;1261;70227;-56
2024/04/17 07:51:32;;;;;;;3.30;3.00;;;;;;;10.50;100.00;98077.58;105379;1265;73278;-56
2024/04/17 07:53:59;;;;;;;2.90;2.70;;;;;;;10.50;100.00;98076.02;105462;1260;60875;-56
2024/04/17 07:56:27;;;;;;;3.10;2.60;;;;;;;10.55;100.00;98077.06;105257;1257;60896;-58
2024/04/17 07:58:55;;;;;;;5.00;2.60;;;;;;;10.68;100.00;98080.92;106094;1254;74303;-57
2024/04/17 08:01:22;;;;;;;3.60;2.10;;;;;;;10.77;100.00;98075.43;105619;1253;70441;-58
2024/04/17 08:03:50;;;;;;;2.30;2.10;;;;;;;10.75;100.00;98073.67;104960;1260;73104;-56
2024/04/17 08:06:20;;;;;;;;;;;;;;;10.73;100.00;98079.55;106372;1255;61810;-57
2024/04/17 08:08:48;;;;;;;3.10;2.30;;;;;;;10.75;100.00;98076.61;106068;1254;60047;-58
2024/04/17 08:11:19;;;;;;;5.30;2.10;;;;;;;10.77;100.00;98070.02;105232;1261;75413;-56
2024/04/17 08:13:52;;;;;;;3.90;2.60;;;;;;;10.82;100.00;98068.29;106390;1254;68258;-57
2024/04/17 08:16:20;;;;;;;2.80;2.20;;;;;;;10.83;100.00;98064.54;106138;1254;71409;-57
2024/04/17 08:18:48;;;;;;;3.30;2.30;;;;;;;10.80;100.00;98060.35;105445;1258;62723;-57
2024/04/17 08:21:16;;;;;;;3.00;2.40;;;;;;;10.74;100.00;98055.66;106044;1253;60937;-58
2024/04/17 08:23:44;;;;;;;2.60;2.20;;;;;;;10.65;100.00;98052.77;106011;1254;74083;-56
2024/04/17 08:26:11;;;;;;;3.20;2.30;;;;;;;10.61;100.00;98057.58;105306;1254;69556;-56
2024/04/17 08:28:39;;;;;;;4.30;2.20;;;;;;;10.59;100.00;98056.52;105613;1254;72785;-58
2024/04/17 08:31:06;;;;;;;2.50;2.00;;;;;;;10.52;100.00;98059.98;107308;1254;60869;-57
2024/04/17 08:33:34;;;;;;;;;;;;;;;10.46;100.00;98060.52;106687;1254;60432;-57
2024/04/17 08:36:02;;;;;;;;;;;;;;;10.40;100.00;98064.43;106988;1254;76133;-57
2024/04/17 08:38:29;;;;;;;;;;;;;;;10.33;100.00;98066.84;106570;1257;68701;-57
2024/04/17 08:40:57;;;;;;;2.20;1.60;;;;;;;10.27;100.00;98064.94;106256;1253;71728;-57
2024/04/17 08:43:25;;;;;;;4.00;2.00;;;;;;;10.20;100.00;98067.48;105478;1256;61298;-57
2024/04/17 08:45:54;;;;;;;1.70;1.60;;;;;;;10.18;100.00;98064.84;105795;1253;60578;-58
2024/04/17 08:48:22;;;;;;;2.30;2.10;;;;;;;10.18;100.00;98066.73;105850;1252;74336;-56
2024/04/17 08:50:51;;;;;;;6.00;2.60;;;;;;;10.17;100.00;98067.54;105754;1257;69665;-56
2024/04/17 08:53:19;;;;;;;2.50;2.30;;;;;;;10.12;100.00;98070.46;106009;1253;71326;-57
2024/04/17 08:55:47;;;;;;;;;;;;;;;10.11;100.00;98068.42;106201;1254;60991;-58
2024/04/17 08:58:15;;;;;;;2.40;1.90;;;;;;;10.14;100.00;98069.44;105639;1259;60482;-56
2024/04/17 09:00:43;;;;;;;;;;;;;;;10.17;100.00;98074.00;106110;1254;74463;-56
2024/04/17 09:03:10;;;;;;;6.00;2.60;;;;;;;10.19;100.00;98071.09;105585;1254;69722;-56
2024/04/17 09:05:38;;;;;;;11.50;2.90;;;;;;;10.19;100.00;98070.55;105789;1254;72586;-57
2024/04/17 09:08:07;;;;;;;5.00;2.90;;;;;;;10.18;100.00;98067.42;105693;1254;60839;-57
2024/04/17 09:10:34;;;;;;;4.10;3.20;;;;;;;10.13;100.00;98069.20;105602;1257;61420;-57
2024/04/17 09:13:02;;;;;;;3.60;3.30;;;;;;;10.08;100.00;98067.62;106182;1253;72905;-57
2024/04/17 09:15:30;;;;;;;;;;;;;;;10.15;100.00;98069.59;106002;1254;70523;-57
2024/04/17 09:17:59;;;;;;;3.90;3.20;;;;;;;10.30;100.00;98065.95;105366;1253;73365;-57
2024/04/17 09:20:27;;;;;;;6.90;3.00;;;;;;;10.30;100.00;98067.88;105244;1254;61372;-58
2024/04/17 09:22:55;;;;;;;4.50;3.90;;;;;;;10.32;100.00;98069.52;106512;1252;60530;-56
2024/04/17 09:25:23;;;;;;;4.70;2.80;;;;;;;10.31;100.00;98068.15;106222;1254;75142;-56
2024/04/17 09:27:50;;;;;;;3.90;2.90;;;;;;;10.30;100.00;98068.06;105296;1256;69411;-57
2024/04/17 09:30:18;;;;;;;3.30;2.80;;;;;;;10.28;100.00;98073.25;105540;1253;72452;-56
2024/04/17 09:32:46;;;;;;;3.00;2.70;;;;;;;10.33;100.00;98080.87;106109;1253;61333;-57
2024/04/17 09:35:14;;;;;;;4.10;2.70;;;;;;;10.36;100.00;98084.66;105764;1254;60970;-57
2024/04/17 09:37:42;;;;;;;;;;;;;;;10.27;100.00;98086.29;106101;1252;73596;-59
2024/04/17 09:40:10;;;;;;;3.10;2.50;;;;;;;10.14;100.00;98096.05;106359;1253;69469;-56
2024/04/17 09:42:41;;;;;;;2.80;2.60;;;;;;;10.24;100.00;98099.11;106334;1254;72478;-58
2024/04/17 09:45:11;;;;;;;2.60;2.40;;;;;;;10.17;100.00;98106.36;106296;1256;60682;-57
2024/04/17 09:47:40;;;;;;;3.80;2.10;;;;;;;10.24;100.00;98105.76;106099;1254;60661;-58
2024/04/17 09:50:10;;;;;;;5.20;2.50;;;;;;;10.24;100.00;98105.56;105744;1254;74740;-58
2024/04/17 09:52:38;;;;;;;4.50;2.50;;;;;;;10.32;100.00;98105.09;106140;1254;69307;-58
2024/04/17 09:55:06;;;;;;;4.10;2.60;;;;;;;10.19;100.00;98104.55;105827;1254;72539;-57
2024/04/17 09:57:34;;;;;;;4.90;2.90;;;;;;;10.15;100.00;98110.89;105417;1253;61024;-57
2024/04/17 10:00:01;;;;;;;4.20;2.80;;;;;;;10.14;100.00;98114.13;105857;1252;60605;-58
2024/04/17 10:02:31;;;;;;;3.50;3.20;;;;;;;10.16;100.00;98116.78;105624;1258;74220;-55
2024/04/17 10:04:58;;;;;;;3.90;3.00;;;;;;;10.16;100.00;98114.89;106017;1253;70393;-56
2024/04/17 10:07:27;;;;;;;3.70;2.90;;;;;;;10.20;100.00;98116.56;106000;1253;73260;-55
2024/04/17 10:09:55;;;;;;;3.10;2.90;;;;;;;10.22;100.00;98120.23;106132;1254;60724;-56
2024/04/17 10:12:22;;;;;;;2.10;2.00;;;;;;;10.25;100.00;98125.65;106136;1256;60444;-55
2024/04/17 10:14:50;;;;;;;5.20;3.10;;;;;;;10.25;100.00;98125.27;106493;1253;74414;-56
2024/04/17 10:17:18;;;;;;;3.90;3.10;;;;;;;10.24;100.00;98128.33;106435;1252;69205;-55
2024/04/17 10:20:01;;;;;;;4.40;3.40;;;;;;;10.25;100.00;98126.86;106222;1253;72750;-56
2024/04/17 10:22:30;;;;;;;5.40;3.70;;;;;;;10.16;100.00;98125.18;105904;1253;61129;-56
2024/04/17 10:25:08;;;;;;;3.70;2.90;;;;;;;10.26;100.00;98117.52;106143;1252;61702;-55
2024/04/17 10:27:49;;;;;;;3.10;2.80;;;;;;;10.28;100.00;98110.73;106614;1253;73920;-55
2024/04/17 10:30:17;;;;;;;3.00;2.80;;;;;;;10.34;100.00;98102.34;105729;1252;70092;-54
2024/04/17 10:32:45;;;;;;;3.00;2.60;;;;;;;10.34;100.00;98095.83;105824;1254;73026;-58
2024/04/17 10:35:16;;;;;;;5.30;3.00;;;;;;;10.44;100.00;98098.34;104822;1256;60806;-55
2024/04/17 10:37:45;;;;;;;6.20;2.90;;;;;;;10.59;100.00;98097.53;105084;1254;60812;-56
2024/04/17 10:40:12;;;;;;;3.40;3.00;;;;;;;10.69;100.00;98106.27;104635;1254;74339;-55
2024/04/17 10:42:40;;;;;;;3.70;3.40;;;;;;;10.73;100.00;98107.61;104970;1254;70575;-57
2024/04/17 10:45:08;;;;;;;;;;;;;;;10.82;100.00;98108.04;105497;1257;72750;-55
2024/04/17 10:47:35;;;;;;;;;;;;;;;10.97;100.00;98103.69;104559;1260;60900;-56
2024/04/17 10:50:03;;;;;;;;;;;;;;;11.08;100.00;98113.46;105100;1255;61141;-56
2024/04/17 10:52:31;;;;;;;9.30;3.60;;;;;;;11.14;100.00;98125.15;105061;1253;72777;-56
2024/04/17 10:55:03;;;;;;;4.20;3.60;;;;;;;11.10;100.00;98128.23;104875;1263;70489;-55
2024/04/17 10:57:31;;;;;;;3.50;3.20;;;;;;;11.01;100.00;98126.91;104452;1270;72950;-55
2024/04/17 10:59:59;;;;;;;3.80;2.50;;;;;;;10.98;100.00;98131.48;105729;1253;61603;-56
2024/04/17 11:02:28;;;;;;;3.10;2.70;;;;;;;11.04;100.00;98129.28;105552;1252;59352;-56
2024/04/17 11:04:55;;;;;;;4.90;3.60;;;;;;;11.11;100.00;98137.08;104755;1255;73722;-56
2024/04/17 11:07:23;;;;;;;5.00;3.30;;;;;;;11.13;100.00;98137.86;105011;1257;70242;-56
2024/04/17 11:09:50;;;;;;;3.20;2.60;;;;;;;11.03;100.00;98142.59;104380;1263;71846;-55
2024/04/17 11:12:19;;;;;;;3.50;2.70;;;;;;;11.06;100.00;98143.77;104411;1271;62342;-57
2024/04/17 11:14:47;;;;;;;3.70;2.60;;;;;;;11.07;100.00;98143.85;105088;1260;61340;-58
2024/04/17 11:17:14;;;;;;;;;;;;;;;11.06;100.00;98151.80;104817;1253;75258;-58
2024/04/17 11:19:42;;;;;;;4.30;2.50;;;;;;;11.02;100.00;98148.19;105963;1253;69644;-58
2024/04/17 11:22:11;;;;;;;3.50;3.20;;;;;;;11.00;100.00;98145.52;105036;1253;71488;-58
2024/04/17 11:24:45;;;;;;;2.60;2.40;;;;;;;11.02;100.00;98146.98;104596;1257;61624;-58
2024/04/17 11:27:17;;;;;;;3.40;2.70;;;;;;;11.01;100.00;98151.31;104667;1257;61333;-57
2024/04/17 11:29:45;;;;;;;2.70;2.50;;;;;;;10.97;100.00;98156.50;104430;1258;74631;-57
2024/04/17 11:32:16;;;;;;;4.10;2.90;;;;;;;10.89;100.00;98159.14;104975;1256;69226;-58
2024/04/17 11:34:43;;;;;;;;;;;;;;;10.77;100.00;98167.99;105237;1255;72970;-57
2024/04/17 11:37:12;;;;;;;5.50;2.60;;;;;;;10.80;100.00;98165.52;104971;1258;61468;-57
2024/04/17 11:39:40;;;;;;;3.20;2.50;;;;;;;10.75;100.00;98164.98;104938;1259;61359;-60
2024/04/17 11:42:12;;;;;;;3.20;2.30;;;;;;;10.70;100.00;98172.98;105109;1253;74730;-57
2024/04/17 11:44:41;;;;;;;3.10;2.40;;;;;;;10.74;100.00;98173.60;104432;1257;70060;-58
2024/04/17 11:47:12;;;;;;;3.30;2.50;;;;;;;10.78;100.00;98178.27;105112;1259;75317;-57
2024/04/17 11:49:40;;;;;;;4.10;2.70;;;;;;;10.78;100.00;98177.59;105040;1253;61250;-57
2024/04/17 11:52:09;;;;;;;5.70;3.00;;;;;;;10.85;100.00;98185.13;104969;1255;61333;-57
2024/04/17 11:54:36;;;;;;;5.70;3.10;;;;;;;10.76;100.00;98189.77;104587;1254;75224;-56
2024/04/17 11:57:06;;;;;;;5.40;3.10;;;;;;;10.70;100.00;98195.05;104656;1256;68245;-56
2024/04/17 11:59:35;;;;;;;3.00;2.40;;;;;;;10.69;100.00;98195.70;104569;1267;71942;-56
2024/04/17 12:02:02;;;;;;;3.10;2.40;;;;;;;10.64;100.00;98200.53;105128;1259;61748;-57
2024/04/17 12:04:30;;;;;;;3.30;2.60;;;;;;;10.63;100.00;98203.27;104700;1271;61704;-56
2024/04/17 12:06:58;;;;;;;3.50;2.70;;;;;;;10.78;100.00;98205.24;104467;1260;73783;-56
2024/04/17 12:09:26;;;;;;;4.20;2.70;;;;;;;10.67;100.00;98207.02;104608;1260;68895;-56
2024/04/17 12:11:54;;;;;;;2.60;2.40;;;;;;;10.62;100.00;98208.57;104652;1257;72990;-56
2024/04/17 12:14:22;;;;;;;5.70;2.70;;;;;;;10.68;100.00;98206.59;104727;1256;61467;-56
2024/04/17 12:16:49;;;;;;;2.50;2.30;;;;;;;10.59;100.00;98204.73;104797;1254;61394;-56
2024/04/17 12:19:17;;;;;;;3.10;2.20;;;;;;;10.58;100.00;98213.20;104870;1256;74532;-56
2024/04/17 12:21:44;;;;;;;4.90;2.40;;;;;;;10.55;100.00;98213.22;104710;1254;69354;-55
2024/04/17 12:24:19;;;;;;;3.30;2.50;;;;;;;10.57;100.00;98220.84;104645;1263;72842;-56
2024/04/17 12:26:50;;;;;;;6.00;2.40;;;;;;;10.52;100.00;98222.14;104703;1259;61212;-56
2024/04/17 12:29:19;;;;;;;6.20;2.70;;;;;;;10.55;100.00;98221.85;104367;1269;61381;-56
2024/04/17 12:31:47;;;;;;;3.10;2.80;;;;;;;10.58;100.00;98221.96;104703;1258;75417;-56
2024/04/17 12:34:15;;;;;;;3.80;2.70;;;;;;;10.63;100.00;98223.92;104698;1259;70131;-56
2024/04/17 12:36:43;;;;;;;;;;;;;;;10.67;100.00;98226.64;104728;1256;73008;-56
2024/04/17 12:39:13;;;;;;;2.20;1.80;;;;;;;10.65;100.00;98233.59;104630;1255;61718;-56
2024/04/17 12:41:41;;;;;;;3.90;2.90;;;;;;;10.59;100.00;98228.39;105033;1265;60844;-56
2024/04/17 12:44:08;;;;;;;3.20;2.50;;;;;;;10.62;100.00;98222.95;104324;1256;75042;-56
2024/04/17 12:46:36;;;;;;;2.40;2.10;;;;;;;10.69;100.00;98213.39;104826;1256;70046;-56
2024/04/17 12:49:05;;;;;;;3.30;2.60;;;;;;;10.72;100.00;98208.81;104830;1253;73148;-56
2024/04/17 12:51:32;;;;;;;4.30;2.50;;;;;;;10.77;100.00;98205.98;104745;1253;61356;-56
2024/04/17 12:54:00;;;;;;;2.60;2.20;;;;;;;10.95;100.00;98205.02;104413;1261;60949;-56
2024/04/17 12:56:27;;;;;;;6.10;2.40;;;;;;;10.99;100.00;98210.68;104714;1253;77415;-56
2024/04/17 12:58:55;;;;;;;3.30;1.70;;;;;;;10.87;100.00;98219.86;105325;1254;70326;-56
2024/04/17 13:01:22;;;;;;;4.70;2.10;;;;;;;10.87;100.00;98223.73;105020;1253;73214;-55
2024/04/17 13:03:50;;;;;;;2.50;2.00;;;;;;;10.88;100.00;98221.24;105052;1254;62074;-55
2024/04/17 13:06:18;;;;;;;2.50;1.90;;;;;;;10.95;100.00;98229.17;104968;1257;60775;-54
2024/04/17 13:08:45;;;;;;;2.20;2.00;;;;;;;10.89;100.00;98232.18;104378;1256;74763;-56
2024/04/17 13:11:14;;;;;;;3.30;2.30;;;;;;;10.85;100.00;98227.91;104721;1260;70275;-57
2024/04/17 13:13:42;;;;;;;2.30;2.10;;;;;;;10.87;100.00;98228.97;105216;1254;72935;-56
2024/04/17 13:16:09;;;;;;;2.30;2.00;;;;;;;10.94;100.00;98233.09;104775;1255;62042;-56
2024/04/17 13:18:38;;;;;;;7.00;2.40;;;;;;;11.07;100.00;98232.59;105958;1253;61273;-56
2024/04/17 13:21:06;;;;;;;3.90;2.30;;;;;;;11.01;100.00;98224.06;105561;1253;73769;-56
2024/04/17 13:23:34;;;;;;;2.20;1.90;;;;;;;11.02;100.00;98219.76;105219;1253;70048;-56
2024/04/17 13:26:02;;;;;;;3.80;2.40;;;;;;;11.08;100.00;98220.22;104718;1257;73159;-56
2024/04/17 13:28:31;;;;;;;4.30;2.20;;;;;;;11.11;100.00;98216.52;105069;1263;61445;-56
2024/04/17 13:31:03;;;;;;;1.90;1.80;;;;;;;11.14;100.00;98208.10;105180;1253;61461;-56
2024/04/17 13:33:31;;;;;;;5.00;2.10;;;;;;;11.17;100.00;98208.58;105387;1253;75638;-57
2024/04/17 13:36:00;;;;;;;1.40;1.30;;;;;;;11.37;100.00;98206.91;104759;1254;69606;-60
2024/04/17 13:38:28;;;;;;;3.10;1.30;;;;;;;11.28;100.00;98203.99;104862;1254;72518;-56
2024/04/17 13:41:00;;;;;;;2.80;1.10;;;;;;;11.40;100.00;98205.08;105534;1254;62604;-56
2024/04/17 13:43:29;;;;;;;3.20;1.10;;;;;;;11.46;100.00;98208.73;104808;1253;60262;-58
2024/04/17 13:45:57;;;;;;;2.00;1.00;;;;;;;11.23;100.00;98212.73;105058;1253;74639;-55
2024/04/17 13:48:25;;;;;;;1.80;1.10;;;;;;;11.16;100.00;98214.48;105717;1253;70727;-59
2024/04/17 13:50:59;;;;;;;1.90;0.70;;;;;;;11.15;100.00;98215.04;104737;1254;72504;-57
2024/04/17 13:53:29;;;;;;;2.60;1.00;;;;;;;11.13;100.00;98221.16;104809;1252;62223;-57
2024/04/17 13:55:57;;;;;;;1.10;0.90;;;;;;;11.14;100.00;98225.30;104822;1254;61269;-57
2024/04/17 13:58:26;;;;;;;1.70;1.20;;;;;;;11.16;100.00;98220.20;104921;1253;76916;-57
2024/04/17 14:00:55;;;;;;;1.40;1.00;;;;;;;11.23;100.00;98224.15;104784;1257;68509;-57
2024/04/17 14:03:23;;;;;;;1.20;1.10;;;;;;;11.43;100.00;98223.51;104746;1259;73196;-56
2024/04/17 14:05:51;;;;;;;1.40;1.00;;;;;;;11.33;100.00;98214.30;105625;1254;61540;-58
2024/04/17 14:08:18;;;;;;;;;;;;;;;11.30;100.00;98211.19;104980;1257;61288;-57
2024/04/17 14:10:49;;;;;;;2.80;1.20;;;;;;;11.46;100.00;98200.79;104549;1254;75444;-55
2024/04/17 14:13:17;;;;;;;1.80;1.50;;;;;;;11.49;100.00;98197.61;104640;1256;69479;-55
2024/04/17 14:15:46;;;;;;;3.00;2.00;;;;;;;11.48;100.00;98195.42;104887;1253;72735;-55
2024/04/17 14:18:14;;;;;;;3.40;2.40;;;;;;;11.53;100.00;98197.54;104915;1254;61407;-56
2024/04/17 14:20:41;;;;;;;4.00;2.30;;;;;;;11.48;100.00;98195.22;105325;1253;61276;-57
2024/04/17 14:23:09;;;;;;;4.40;2.60;;;;;;;11.44;100.00;98193.77;105611;1256;74768;-57
2024/04/17 14:25:38;;;;;;;7.00;2.20;;;;;;;11.41;100.00;98195.36;104693;1252;69344;-56
2024/04/17 14:28:07;;;;;;;2.00;1.60;;;;;;;11.43;100.00;98190.48;105326;1253;73522;-57
2024/04/17 14:30:34;;;;;;;2.70;1.20;;;;;;;11.45;100.00;98190.02;104813;1254;61541;-57
2024/04/17 14:33:02;;;;;;;1.40;1.20;;;;;;;11.50;100.00;98192.98;104959;1254;61326;-57
2024/04/17 14:35:30;;;;;;;2.10;1.40;;;;;;;11.43;100.00;98194.85;104924;1260;75181;-58
2024/04/17 14:37:57;;;;;;;3.70;1.00;;;;;;;11.46;100.00;98206.27;105434;1253;70140;-59
2024/04/17 14:40:25;;;;;;;1.70;1.10;;;;;;;11.47;100.00;98208.28;105494;1254;72427;-57
2024/04/17 14:42:53;;;;;;;2.80;1.20;;;;;;;11.62;100.00;98205.66;104757;1254;61438;-58
2024/04/17 14:45:21;;;;;;;1.20;1.10;;;;;;;11.43;100.00;98209.65;104506;1258;61304;-57
2024/04/17 14:47:48;;;;;;;1.30;1.20;;;;;;;11.53;100.00;98199.59;104909;1256;74427;-57
2024/04/17 14:50:18;;;;;;;1.30;1.00;;;;;;;11.36;100.00;98200.98;104557;1253;68508;-57
2024/04/17 14:52:47;;;;;;;2.00;1.30;;;;;;;11.51;100.00;98195.92;105018;1253;72185;-57
2024/04/17 14:55:15;;;;;;;1.20;1.10;;;;;;;11.51;100.00;98177.62;104982;1253;61471;-57
2024/04/17 14:57:42;;;;;;;3.00;1.30;;;;;;;11.66;100.00;98195.23;105000;1254;61870;-59
2024/04/17 15:00:12;;;;;;;2.20;1.40;;;;;;;11.58;100.00;98195.71;104696;1270;74812;-57
2024/04/17 15:02:39;;;;;;;1.70;1.20;;;;;;;11.63;100.00;98199.05;104967;1252;69658;-58
2024/04/17 15:05:07;;;;;;;5.60;1.60;;;;;;;11.68;100.00;98198.55;105157;1254;72738;-58
2024/04/17 15:07:35;;;;;;;;;;;;;;;11.72;100.00;98198.01;104426;1257;61599;-57
2024/04/17 15:10:02;;;;;;;4.20;1.20;;;;;;;11.56;100.00;98203.80;104567;1254;61240;-61
2024/04/17 15:12:30;;;;;;;;;;;;;;;11.43;100.00;98209.25;105265;1253;74721;-57
2024/04/17 15:14:58;;;;;;;2.50;1.10;;;;;;;11.38;100.00;98206.81;104830;1257;69449;-56
2024/04/17 15:17:26;;;;;;;1.00;1.00;;;;;;;11.36;100.00;98205.02;105160;1253;73157;-57
2024/04/17 15:19:53;;;;;;;4.20;1.30;;;;;;;11.35;100.00;98197.70;104913;1256;62371;-58
2024/04/17 15:22:22;;;;;;;1.10;1.00;;;;;;;11.36;100.00;98190.46;104488;1266;61368;-57
2024/04/17 15:24:51;;;;;;;4.00;0.90;;;;;;;11.59;100.00;98183.73;105214;1253;73370;-58
2024/04/17 15:27:18;;;;;;;2.40;1.30;;;;;;;11.68;100.00;98179.59;105092;1253;70505;-57
2024/04/17 15:29:46;;;;;;;2.70;0.90;;;;;;;11.53;100.00;98184.38;105254;1254;73432;-54
2024/04/17 15:32:14;;;;;;;2.70;0.80;;;;;;;11.41;100.00;98196.30;105059;1257;62357;-58
2024/04/17 15:34:41;;;;;;;1.40;1.00;;;;;;;11.40;100.00;98205.14;105714;1254;61207;-56
2024/04/17 15:37:10;;;;;;;1.70;1.40;;;;;;;11.37;100.00;98205.14;104755;1256;73466;-56
2024/04/17 15:39:38;;;;;;;2.50;1.00;;;;;;;11.37;100.00;98203.58;105578;1252;70569;-55
2024/04/17 15:42:05;;;;;;;3.00;1.40;;;;;;;11.39;100.00;98206.20;105112;1254;72474;-53
2024/04/17 15:44:33;;;;;;;3.00;1.20;;;;;;;11.40;100.00;98210.39;104796;1255;61630;-55
2024/04/17 15:47:01;;;;;;;1.50;0.90;;;;;;;11.39;100.00;98211.13;104966;1255;61308;-56
2024/04/17 15:49:29;;;;;;;2.60;1.40;;;;;;;11.43;100.00;98198.58;104957;1253;73497;-55
2024/04/17 15:52:00;;;;;;;2.40;1.30;;;;;;;11.45;100.00;98202.67;104964;1257;70220;-55
2024/04/17 15:54:27;;;;;;;1.50;1.20;;;;;;;11.40;100.00;98201.77;104810;1256;73305;-55
2024/04/17 15:56:55;;;;;;;2.00;1.10;;;;;;;11.39;100.00;98202.86;104639;1253;61935;-55
2024/04/17 15:59:23;;;;;;;2.30;1.50;;;;;;;11.41;100.00;98202.54;104633;1254;61692;-56
2024/04/17 16:01:53;;;;;;;3.00;1.40;;;;;;;11.37;100.00;98205.46;105413;1257;74690;-55
2024/04/17 16:04:20;;;;;;;5.70;1.70;;;;;;;11.36;100.00;98204.67;104947;1266;70341;-56
2024/04/17 16:06:48;;;;;;;;;;;;;;;11.32;100.00;98203.01;104944;1256;72776;-55
2024/04/17 16:09:19;;;;;;;4.10;1.80;;;;;;;11.31;100.00;98202.04;104815;1254;61661;-56
2024/04/17 16:11:46;;;;;;;2.90;1.60;;;;;;;11.28;100.00;98199.55;105577;1252;61238;-55
2024/04/17 16:14:14;;;;;;;4.30;1.50;;;;;;;11.26;100.00;98201.99;104476;1262;74915;-55
2024/04/17 16:16:41;;;;;;;2.70;1.40;;;;;;;11.25;100.00;98203.67;104946;1254;70114;-55
2024/04/17 16:19:09;;;;;;;2.70;1.50;;;;;;;11.21;100.00;98203.71;104930;1269;72778;-55
2024/04/17 16:21:37;;;;;;;2.80;1.70;;;;;;;11.26;100.00;98203.77;104817;1256;62650;-55
2024/04/17 16:24:06;;;;;;;;;;;;;;;11.28;100.00;98199.23;105309;1254;61375;-55
2024/04/17 16:26:33;;;;;;;3.60;1.50;;;;;;;11.26;100.00;98195.52;104646;1253;76037;-55
2024/04/17 16:29:01;;;;;;;2.30;1.30;;;;;;;11.24;100.00;98194.96;104841;1253;69573;-56
2024/04/17 16:31:30;;;;;;;2.30;1.40;;;;;;;11.21;100.00;98188.52;104564;1257;71419;-55